Aviation Digital Data Service (ADDS)

Output produced by METARs form (2112 UTC 16 February 2019)
found at http://www.aviationweather.gov/metar/data/
 
Forecast for: WSSL (SINGAPORE/SELETA, SG)
Text: TAF WSSL 161700Z 1618/1800 02008KT 9999 SCT020
Forecast period: 1800 UTC 16 February 2019 to 0000 UTC 18 February 2019
Forecast type: FROM: standard forecast or significant change
Winds: from the NNE (20 degrees) at 9 MPH (8 knots; 4.1 m/s)
Visibility: 6 or more miles 10+ km)
Ceiling: at least 12,000 feet AGL
Clouds: scattered clouds at 2000 feet AGL
Weather: no significant weather forecast for this period
Text: TEMPO 1708/1711 2000 TSRA FEW012CB BKN015
Forecast period: 0800 to 1100 UTC 17 February 2019
Forecast type: TEMPORARY: The following changes expected for less than half the time period
Visibility: 1.24 miles (2.00 km)
Ceiling: 1500 feet AGL
Clouds: few clouds at 1200 feet AGL
broken clouds at 1500 feet AGL
Weather: TSRA  (rain associated with thunderstorm(s))